地図

経路データ

SID SEASON NUMBER BASIN SUBBASIN NAME ISO_TIME NATURE LAT LON WMO_WIND WMO_PRES WMO_AGENCY TRACK_TYPE DIST2LAND LANDFALL IFLAG USA_AGENCY USA_ATCF_ID USA_LAT USA_LON USA_RECORD USA_STATUS USA_WIND USA_PRES USA_SSHS USA_R34_NE USA_R34_SE USA_R34_SW USA_R34_NW USA_R50_NE USA_R50_SE USA_R50_SW USA_R50_NW USA_R64_NE USA_R64_SE USA_R64_SW USA_R64_NW USA_POCI USA_ROCI USA_RMW USA_EYE TOKYO_LAT TOKYO_LON TOKYO_GRADE TOKYO_WIND TOKYO_PRES TOKYO_R50_DIR TOKYO_R50_LONG TOKYO_R50_SHORT TOKYO_R30_DIR TOKYO_R30_LONG TOKYO_R30_SHORT TOKYO_LAND CMA_LAT CMA_LON CMA_CAT CMA_WIND CMA_PRES HKO_LAT HKO_LON HKO_CAT HKO_WIND HKO_PRES NEWDELHI_LAT NEWDELHI_LON NEWDELHI_GRADE NEWDELHI_WIND NEWDELHI_PRES NEWDELHI_CI NEWDELHI_DP NEWDELHI_POCI REUNION_LAT REUNION_LON REUNION_TYPE REUNION_WIND REUNION_PRES REUNION_TNUM REUNION_CI REUNION_RMW REUNION_R34_NE REUNION_R34_SE REUNION_R34_SW REUNION_R34_NW REUNION_R50_NE REUNION_R50_SE REUNION_R50_SW REUNION_R50_NW REUNION_R64_NE REUNION_R64_SE REUNION_R64_SW REUNION_R64_NW BOM_LAT BOM_LON BOM_TYPE BOM_WIND BOM_PRES BOM_TNUM BOM_CI BOM_RMW BOM_R34_NE BOM_R34_SE BOM_R34_SW BOM_R34_NW BOM_R50_NE BOM_R50_SE BOM_R50_SW BOM_R50_NW BOM_R64_NE BOM_R64_SE BOM_R64_SW BOM_R64_NW BOM_ROCI BOM_POCI BOM_EYE BOM_POS_METHOD BOM_PRES_METHOD NADI_LAT NADI_LON NADI_CAT NADI_WIND NADI_PRES WELLINGTON_LAT WELLINGTON_LON WELLINGTON_WIND WELLINGTON_PRES DS824_LAT DS824_LON DS824_STAGE DS824_WIND DS824_PRES TD9636_LAT TD9636_LON TD9636_STAGE TD9636_WIND TD9636_PRES TD9635_LAT TD9635_LON TD9635_WIND TD9635_PRES TD9635_ROCI NEUMANN_LAT NEUMANN_LON NEUMANN_CLASS NEUMANN_WIND NEUMANN_PRES MLC_LAT MLC_LON MLC_CLASS MLC_WIND MLC_PRES USA_GUST BOM_GUST BOM_GUST_PER REUNION_GUST REUNION_GUST_PER USA_SEAHGT USA_SEARAD_NE USA_SEARAD_SE USA_SEARAD_SW USA_SEARAD_NW STORM_SPEED STORM_DIR
1994262N16249 1994 87 EP MM NORMAN 1994-09-19 06:00:00 TS 15.8000 -111.000 25 1009 hurdat_epa main 744 744 O_____________ hurdat_epa EP161994 15.8000 -111.000 TD 25 1009 -1 14 293
1994262N16249 1994 87 EP MM NORMAN 1994-09-19 09:00:00 TS 16.0680 -111.660 main 781 762 P_____________ EP161994 16.0680 -111.660 TD 25 1008 -1 14 296
1994262N16249 1994 87 EP MM NORMAN 1994-09-19 12:00:00 TS 16.4000 -112.300 25 1008 hurdat_epa main 765 742 O_____________ hurdat_epa EP161994 16.4000 -112.300 TD 25 1008 -1 14 303
1994262N16249 1994 87 EP MM NORMAN 1994-09-19 15:00:00 TS 16.8348 -112.908 main 746 724 P_____________ EP161994 16.8348 -112.908 TD 27 1007 -1 15 308
1994262N16249 1994 87 EP MM NORMAN 1994-09-19 18:00:00 TS 17.3000 -113.500 30 1007 hurdat_epa main 725 715 O_____________ hurdat_epa EP161994 17.3000 -113.500 TD 30 1007 -1 15 308
1994262N16249 1994 87 EP MM NORMAN 1994-09-19 21:00:00 TS 17.7224 -114.115 main 721 716 P_____________ EP161994 17.7224 -114.115 TD 32 1006 -1 14 305
1994262N16249 1994 87 EP MM NORMAN 1994-09-20 00:00:00 TS 18.1000 -114.700 35 1006 hurdat_epa main 726 725 O_____________ hurdat_epa EP161994 18.1000 -114.700 TS 35 1006 0 13 303
1994262N16249 1994 87 EP MM NORMAN 1994-09-20 03:00:00 TS 18.4148 -115.223 main 738 738 P_____________ EP161994 18.4148 -115.223 TS 35 1005 0 11 302
1994262N16249 1994 87 EP MM NORMAN 1994-09-20 06:00:00 TS 18.7000 -115.700 35 1005 hurdat_epa main 755 755 O_____________ hurdat_epa EP161994 18.7000 -115.700 TS 35 1005 0 11 304
1994262N16249 1994 87 EP MM NORMAN 1994-09-20 09:00:00 TS 19.0150 -116.180 main 764 754 P_____________ EP161994 19.0150 -116.180 TS 35 1004 0 10 305
1994262N16249 1994 87 EP MM NORMAN 1994-09-20 12:00:00 TS 19.3000 -116.600 35 1004 hurdat_epa main 761 758 O_____________ hurdat_epa EP161994 19.3000 -116.600 TS 35 1004 0 9 305
1994262N16249 1994 87 EP MM NORMAN 1994-09-20 15:00:00 TS 19.5074 -116.938 main 762 759 P_____________ EP161994 19.5074 -116.938 TS 35 1004 0 7 305
1994262N16249 1994 87 EP MM NORMAN 1994-09-20 18:00:00 TS 19.7000 -117.200 35 1005 hurdat_epa main 766 764 O_____________ hurdat_epa EP161994 19.7000 -117.200 TS 35 1005 0 6 314
1994262N16249 1994 87 EP MM NORMAN 1994-09-20 21:00:00 TS 19.9424 -117.423 main 764 756 P_____________ EP161994 19.9424 -117.423 TS 35 1005 0 6 323
1994262N16249 1994 87 EP MM NORMAN 1994-09-21 00:00:00 TS 20.2000 -117.600 35 1006 hurdat_epa main 756 748 O_____________ hurdat_epa EP161994 20.2000 -117.600 TS 35 1006 0 6 328
1994262N16249 1994 87 EP MM NORMAN 1994-09-21 03:00:00 TS 20.4500 -117.758 main 756 741 P_____________ EP161994 20.4500 -117.758 TS 32 1006 -1 6 331
1994262N16249 1994 87 EP MM NORMAN 1994-09-21 06:00:00 TS 20.7000 -117.900 30 1007 hurdat_epa main 742 735 O_____________ hurdat_epa EP161994 20.7000 -117.900 TD 30 1007 -1 6 329
1994262N16249 1994 87 EP MM NORMAN 1994-09-21 09:00:00 TS 20.9350 -118.072 main 744 731 P_____________ EP161994 20.9350 -118.072 TD 30 1008 -1 6 331
1994262N16249 1994 87 EP MM NORMAN 1994-09-21 12:00:00 TS 21.2000 -118.200 30 1009 hurdat_epa main 733 715 O_____________ hurdat_epa EP161994 21.2000 -118.200 TD 30 1009 -1 6 347
1994262N16249 1994 87 EP MM NORMAN 1994-09-21 15:00:00 TS 21.5350 -118.223 main 715 692 P_____________ EP161994 21.5350 -118.223 TD 30 1009 -1 7 0
1994262N16249 1994 87 EP MM NORMAN 1994-09-21 18:00:00 TS 21.9000 -118.200 30 1010 hurdat_epa main 692 676 O_____________ hurdat_epa EP161994 21.9000 -118.200 TD 30 1010 -1 7 3
1994262N16249 1994 87 EP MM NORMAN 1994-09-21 21:00:00 TS 22.2550 -118.192 main 668 640 P_____________ EP161994 22.2550 -118.192 TD 27 1010 -1 7 0
1994262N16249 1994 87 EP MM NORMAN 1994-09-22 00:00:00 TS 22.6000 -118.200 25 1011 hurdat_epa main 640 O_____________ hurdat_epa EP161994 22.6000 -118.200 TD 25 1011 -1 7 0

IBTrACS Databaseについて

本データベースは、米国NOAAが公開する1842年以降の世界の熱帯低気圧のベストトラックデータアーカイブInternational Best Track Archive for Climate Stewardship (IBTrACS)を、ウェブで閲覧しやすい形式に変換したものです。

最終更新日:2021-10-27